createdAt,value
2023-04-24T00:00:52.186Z,1.83
2023-04-24T00:03:56.983Z,1.90
2023-04-24T00:07:01.171Z,2.00
2023-04-24T00:10:06.581Z,1.63
2023-04-24T00:13:10.230Z,1.77
2023-04-24T00:16:14.066Z,1.73
2023-04-24T00:19:17.706Z,1.92
2023-04-24T00:22:25.747Z,2.17
2023-04-24T00:25:31.433Z,1.90
2023-04-24T00:28:36.782Z,2.10
2023-04-24T00:31:40.936Z,1.85
2023-04-24T00:34:44.756Z,1.98
2023-04-24T00:37:48.299Z,1.85
2023-04-24T00:40:55.137Z,2.40
2023-04-24T00:43:59.003Z,1.70
2023-04-24T00:47:02.694Z,1.80
2023-04-24T00:50:07.471Z,1.70
2023-04-24T00:53:11.724Z,1.67
2023-04-24T00:56:17.459Z,1.63
2023-04-24T00:59:22.662Z,1.90
2023-04-24T01:02:26.347Z,2.17
2023-04-24T01:05:31.147Z,2.08
2023-04-24T01:08:36.675Z,2.05
2023-04-24T01:11:42.698Z,1.85
2023-04-24T01:14:48.815Z,1.48
2023-04-24T01:17:53.121Z,1.85
2023-04-24T01:21:02.416Z,2.10
2023-04-24T01:24:10.387Z,1.63
2023-04-24T01:27:15.435Z,1.60
2023-04-24T01:30:19.606Z,1.52
2023-04-24T01:33:23.945Z,1.83
2023-04-24T01:36:28.627Z,1.83
2023-04-24T01:39:34.309Z,2.13
2023-04-24T01:42:43.641Z,1.73
2023-04-24T01:45:47.450Z,1.67
2023-04-24T01:48:52.239Z,1.95
2023-04-24T01:51:57.498Z,1.90
2023-04-24T01:55:05.022Z,1.35
2023-04-24T01:58:08.609Z,1.50
2023-04-24T02:01:12.604Z,1.30
2023-04-24T02:04:16.741Z,1.35
2023-04-24T02:07:21.995Z,1.30
2023-04-24T02:10:30.668Z,1.20
2023-04-24T02:13:37.386Z,1.35
2023-04-24T02:16:41.126Z,1.08
2023-04-24T02:19:46.108Z,1.30
2023-04-24T02:22:50.673Z,1.40
2023-04-24T02:25:58.406Z,1.30
2023-04-24T02:29:03.669Z,0.90
2023-04-24T02:32:07.671Z,1.10
2023-04-24T02:35:11.791Z,0.95
2023-04-24T02:38:16.567Z,0.90
2023-04-24T02:41:22.466Z,0.93
2023-04-24T02:44:29.218Z,0.95
2023-04-24T02:47:32.836Z,1.00
2023-04-24T02:50:38.318Z,0.60
2023-04-24T02:53:41.813Z,0.90
2023-04-24T02:56:46.880Z,1.00
2023-04-24T02:59:50.372Z,0.85
2023-04-24T03:02:54.718Z,0.82
2023-04-24T03:05:58.377Z,1.05
2023-04-24T03:09:03.366Z,0.95
2023-04-24T03:12:08.972Z,0.80
2023-04-24T03:15:12.589Z,0.68
2023-04-24T03:18:16.485Z,0.60
2023-04-24T03:21:20.441Z,0.80
2023-04-24T03:24:25.177Z,0.80
2023-04-24T03:27:31.744Z,0.73
2023-04-24T03:30:43.851Z,1.13
2023-04-24T03:33:50.439Z,0.80
2023-04-24T03:36:55.415Z,0.80
2023-04-24T03:40:03.290Z,0.68
2023-04-24T03:43:09.407Z,0.80
2023-04-24T03:46:16.380Z,0.70
2023-04-24T03:49:27.002Z,0.80
2023-04-24T03:52:30.845Z,0.70
2023-04-24T03:55:34.990Z,0.90
2023-04-24T03:58:40.443Z,0.70
2023-04-24T04:01:44.318Z,0.70
2023-04-24T04:04:52.251Z,0.77
2023-04-24T04:07:55.965Z,0.80
2023-04-24T04:11:02.906Z,0.70
2023-04-24T04:14:10.738Z,0.70
2023-04-24T04:17:17.449Z,0.80
2023-04-24T04:20:21.459Z,0.77
2023-04-24T04:23:25.622Z,0.80
2023-04-24T04:26:48.300Z,0.90
2023-04-24T04:30:05.612Z,0.73
2023-04-24T04:33:19.904Z,0.70
2023-04-24T04:36:25.080Z,0.77
2023-04-24T04:39:36.803Z,0.70
2023-04-24T04:42:46.862Z,0.90
2023-04-24T04:45:53.648Z,0.98
2023-04-24T04:49:22.937Z,0.82
2023-04-24T04:52:27.767Z,0.60
2023-04-24T04:55:44.047Z,0.65
2023-04-24T04:58:56.467Z,0.57
2023-04-24T05:02:01.326Z,0.68
2023-04-24T05:05:06.635Z,0.50
2023-04-24T05:08:19.764Z,0.50
2023-04-24T05:11:30.671Z,0.55
2023-04-24T05:14:35.819Z,0.50
2023-04-24T05:17:41.796Z,0.70
2023-04-24T05:20:47.983Z,0.50
2023-04-24T05:23:51.900Z,0.60
2023-04-24T05:27:08.450Z,0.70
2023-04-24T05:30:16.313Z,0.73
2023-04-24T05:33:21.708Z,0.50
2023-04-24T05:36:28.053Z,0.60
2023-04-24T05:39:32.598Z,0.60
2023-04-24T05:42:37.742Z,0.40
2023-04-24T05:45:41.133Z,0.52
2023-04-24T05:48:45.857Z,0.40
2023-04-24T05:51:49.280Z,0.43
2023-04-24T05:54:55.685Z,0.43
2023-04-24T05:58:03.815Z,0.60
2023-04-24T06:01:07.849Z,0.40
2023-04-24T06:04:16.052Z,0.50
2023-04-24T06:07:19.924Z,0.50
2023-04-24T06:10:23.663Z,0.52
2023-04-24T06:13:28.161Z,0.57
2023-04-24T06:16:52.140Z,0.70
2023-04-24T06:20:09.857Z,0.63
2023-04-24T06:23:13.480Z,0.50
2023-04-24T06:26:17.943Z,0.60
2023-04-24T06:29:28.239Z,0.80
2023-04-24T06:32:33.490Z,0.57
2023-04-24T06:35:40.568Z,0.65
2023-04-24T06:38:43.985Z,0.60
2023-04-24T06:41:47.831Z,0.65
2023-04-24T06:44:57.386Z,0.80
2023-04-24T06:48:01.529Z,0.80
2023-04-24T06:51:07.372Z,0.75
2023-04-24T06:54:12.492Z,0.60
2023-04-24T06:57:17.030Z,0.80
2023-04-24T07:00:22.076Z,0.68
2023-04-24T07:03:26.912Z,0.50
2023-04-24T07:06:33.824Z,0.80
2023-04-24T07:09:39.721Z,0.77
2023-04-24T07:12:43.268Z,0.90
2023-04-24T07:15:47.444Z,0.90
2023-04-24T07:18:51.267Z,0.80
2023-04-24T07:21:56.583Z,0.60
2023-04-24T07:25:00.628Z,0.70
2023-04-24T07:28:05.444Z,0.93
2023-04-24T07:31:10.992Z,0.80
2023-04-24T07:34:15.437Z,0.90
2023-04-24T07:37:20.609Z,0.75
2023-04-24T07:40:25.053Z,0.80
2023-04-24T07:43:28.329Z,0.82
2023-04-24T07:46:32.969Z,0.70
2023-04-24T07:49:38.293Z,0.88
2023-04-24T07:52:43.882Z,0.63
2023-04-24T07:55:49.840Z,0.80
2023-04-24T07:58:54.880Z,0.80
2023-04-24T08:02:02.396Z,0.70
2023-04-24T08:05:06.211Z,0.60
2023-04-24T08:08:11.561Z,0.68
2023-04-24T08:11:17.384Z,0.77
2023-04-24T08:14:21.930Z,0.40
2023-04-24T08:17:28.042Z,0.45
2023-04-24T08:20:31.686Z,0.60
2023-04-24T08:23:36.648Z,0.50
2023-04-24T08:26:40.961Z,0.60
2023-04-24T08:29:46.019Z,0.55
2023-04-24T08:32:49.695Z,0.60
2023-04-24T08:35:53.724Z,0.80
2023-04-24T08:38:58.740Z,0.60
2023-04-24T08:42:06.545Z,0.60
2023-04-24T08:45:14.714Z,0.57
2023-04-24T08:48:29.537Z,0.82
2023-04-24T08:51:34.107Z,0.50
2023-04-24T08:54:40.096Z,0.90
2023-04-24T08:57:45.834Z,0.70
2023-04-24T09:00:49.690Z,0.80
2023-04-24T09:03:55.626Z,0.88
2023-04-24T09:07:00.550Z,1.05
2023-04-24T09:10:05.629Z,1.08
2023-04-24T09:13:10.449Z,0.93
2023-04-24T09:16:15.305Z,1.50
2023-04-24T09:19:22.369Z,1.20
2023-04-24T09:22:26.996Z,1.30
2023-04-24T09:25:36.692Z,1.50
2023-04-24T09:28:41.252Z,1.13
2023-04-24T09:31:45.461Z,1.20
2023-04-24T09:34:50.489Z,1.40
2023-04-24T09:37:56.111Z,1.20
2023-04-24T09:41:09.919Z,1.55
2023-04-24T09:44:15.695Z,1.60
2023-04-24T09:47:23.000Z,2.00
2023-04-24T09:50:27.560Z,1.98
2023-04-24T09:53:30.970Z,1.40
2023-04-24T09:56:37.370Z,1.67
2023-04-24T09:59:46.181Z,1.85
2023-04-24T10:02:53.994Z,1.70
2023-04-24T10:06:01.078Z,1.73
2023-04-24T10:09:06.206Z,1.77
2023-04-24T10:12:10.963Z,2.03
2023-04-24T10:15:16.483Z,1.42
2023-04-24T10:18:22.231Z,1.85
2023-04-24T10:21:27.540Z,1.95
2023-04-24T10:24:31.250Z,2.10
2023-04-24T10:27:37.377Z,1.33
2023-04-24T10:30:45.632Z,1.20
2023-04-24T10:33:49.527Z,1.30
2023-04-24T10:36:56.541Z,1.58
2023-04-24T10:40:01.377Z,2.00
2023-04-24T10:43:07.302Z,2.20
2023-04-24T10:46:12.320Z,2.05
2023-04-24T10:49:16.709Z,2.05
2023-04-24T10:52:21.545Z,2.10
2023-04-24T10:55:44.909Z,2.38
2023-04-24T10:58:54.204Z,2.28
2023-04-24T11:02:00.495Z,2.33
2023-04-24T11:05:06.382Z,2.15
2023-04-24T11:08:14.086Z,2.38
2023-04-24T11:11:21.678Z,2.50
2023-04-24T11:14:33.900Z,2.75
2023-04-24T11:17:45.877Z,2.95
2023-04-24T11:20:59.948Z,2.67
2023-04-24T11:24:18.509Z,3.00
2023-04-24T11:27:22.872Z,2.67
2023-04-24T11:30:31.959Z,2.97
2023-04-24T11:33:35.888Z,3.10
2023-04-24T11:36:39.682Z,2.80
2023-04-24T11:39:44.086Z,2.58
2023-04-24T11:42:50.451Z,2.90
2023-04-24T11:46:02.438Z,2.90
2023-04-24T11:49:06.616Z,2.60
2023-04-24T11:52:11.585Z,2.42
2023-04-24T11:55:26.987Z,2.42
2023-04-24T11:58:30.560Z,2.40
2023-04-24T12:01:51.058Z,2.22
2023-04-24T12:04:56.401Z,1.98
2023-04-24T12:08:00.300Z,1.92
2023-04-24T12:11:04.640Z,2.22
2023-04-24T12:14:13.457Z,1.77
2023-04-24T12:17:18.444Z,1.75
2023-04-24T12:20:27.078Z,2.17
2023-04-24T12:23:37.369Z,2.20
2023-04-24T12:26:50.592Z,2.20
2023-04-24T12:29:59.033Z,1.98
2023-04-24T12:33:05.010Z,1.92
2023-04-24T12:36:10.788Z,1.80
2023-04-24T12:39:17.781Z,1.95
2023-04-24T12:42:31.097Z,1.95
2023-04-24T12:45:34.544Z,2.10
2023-04-24T12:48:40.814Z,1.80
2023-04-24T12:51:44.686Z,1.65
2023-04-24T12:54:48.145Z,1.70
2023-04-24T12:57:52.836Z,1.65
2023-04-24T13:00:56.981Z,1.73
2023-04-24T13:04:05.537Z,1.70
2023-04-24T13:07:09.558Z,2.08
2023-04-24T13:10:14.241Z,1.60
2023-04-24T13:13:18.071Z,1.65
2023-04-24T13:16:22.064Z,1.60
2023-04-24T13:19:28.595Z,1.63
2023-04-24T13:22:38.108Z,1.30
2023-04-24T13:25:42.865Z,1.63
2023-04-24T13:28:47.245Z,1.27
2023-04-24T13:31:52.654Z,1.30
2023-04-24T13:34:57.747Z,1.42
2023-04-24T13:38:02.221Z,1.52
2023-04-24T13:41:08.222Z,1.10
2023-04-24T13:44:11.842Z,1.27
2023-04-24T13:47:15.624Z,0.73
2023-04-24T13:50:20.636Z,0.90
2023-04-24T13:53:24.014Z,0.90
2023-04-24T13:56:27.369Z,0.77
2023-04-24T13:59:36.905Z,0.88
2023-04-24T14:02:41.424Z,0.80
2023-04-24T14:05:46.745Z,1.08
2023-04-24T14:08:51.539Z,0.73
2023-04-24T14:11:55.483Z,0.98
2023-04-24T14:14:59.894Z,0.95
2023-04-24T14:18:06.193Z,0.98
2023-04-24T14:21:11.759Z,1.08
2023-04-24T14:24:15.280Z,1.13
2023-04-24T14:27:19.843Z,1.35
2023-04-24T14:30:24.000Z,1.02
2023-04-24T14:33:28.325Z,1.20
2023-04-24T14:36:33.937Z,0.95
2023-04-24T14:39:37.454Z,1.15
2023-04-24T14:42:41.897Z,1.20
2023-04-24T14:45:45.498Z,1.10
2023-04-24T14:48:51.119Z,0.93
2023-04-24T14:51:59.310Z,0.90
2023-04-24T14:55:02.733Z,1.00
2023-04-24T14:58:06.893Z,1.30
2023-04-24T15:01:10.395Z,1.00
2023-04-24T15:04:16.057Z,1.00
2023-04-24T15:07:22.003Z,1.20
2023-04-24T15:10:26.359Z,1.05
2023-04-24T15:13:30.125Z,1.08
2023-04-24T15:16:35.478Z,0.90
2023-04-24T15:19:39.374Z,0.93
2023-04-24T15:22:44.685Z,1.00
2023-04-24T15:25:51.698Z,0.93
2023-04-24T15:28:58.631Z,0.70
2023-04-24T15:32:03.122Z,0.90
2023-04-24T15:35:10.768Z,1.10
2023-04-24T15:38:16.215Z,0.80
2023-04-24T15:41:19.640Z,0.55
2023-04-24T15:44:24.743Z,0.63
2023-04-24T15:47:28.306Z,0.60
2023-04-24T15:50:31.828Z,0.50
2023-04-24T15:53:40.769Z,0.60
2023-04-24T15:56:45.919Z,0.70
2023-04-24T15:59:49.436Z,0.95
2023-04-24T16:02:53.847Z,0.80
2023-04-24T16:05:58.300Z,0.90
2023-04-24T16:09:04.150Z,1.00
2023-04-24T16:12:09.076Z,1.10
2023-04-24T16:15:12.940Z,1.00
2023-04-24T16:18:17.439Z,1.05
2023-04-24T16:21:21.746Z,0.90
2023-04-24T16:24:26.984Z,0.70
2023-04-24T16:27:30.559Z,0.90
2023-04-24T16:30:34.144Z,0.90
2023-04-24T16:33:37.791Z,0.80
2023-04-24T16:36:41.439Z,1.13
2023-04-24T16:39:47.242Z,1.00
2023-04-24T16:42:51.498Z,1.05
2023-04-24T16:45:56.788Z,1.20
2023-04-24T16:49:02.455Z,0.90
2023-04-24T16:52:06.096Z,1.35
2023-04-24T16:55:15.785Z,0.93
2023-04-24T16:58:19.796Z,1.17
2023-04-24T17:01:23.353Z,1.20
2023-04-24T17:04:27.461Z,1.38
2023-04-24T17:07:31.808Z,1.25
2023-04-24T17:10:36.728Z,0.95
2023-04-24T17:13:41.269Z,1.17
2023-04-24T17:16:46.069Z,1.00
2023-04-24T17:19:51.161Z,1.23
2023-04-24T17:22:54.943Z,1.38
2023-04-24T17:25:59.812Z,1.00
2023-04-24T17:29:03.485Z,0.98
2023-04-24T17:32:06.958Z,1.10
2023-04-24T17:35:11.166Z,0.88
2023-04-24T17:38:16.659Z,0.95
2023-04-24T17:41:22.357Z,1.10
2023-04-24T17:44:26.287Z,1.00
2023-04-24T17:47:30.910Z,1.00
2023-04-24T17:50:34.832Z,1.30
2023-04-24T17:53:39.496Z,1.48
2023-04-24T17:56:44.470Z,1.40
2023-04-24T17:59:48.979Z,1.00
2023-04-24T18:02:57.700Z,1.20
2023-04-24T18:06:02.146Z,1.27
2023-04-24T18:09:07.196Z,1.40
2023-04-24T18:12:12.195Z,1.48
2023-04-24T18:15:16.904Z,1.35
2023-04-24T18:18:24.036Z,1.40
2023-04-24T18:21:31.576Z,1.15
2023-04-24T18:24:35.734Z,1.25
2023-04-24T18:27:41.688Z,1.30
2023-04-24T18:30:51.629Z,1.40
2023-04-24T18:33:55.737Z,1.42
2023-04-24T18:36:59.204Z,1.65
2023-04-24T18:40:03.484Z,1.23
2023-04-24T18:43:09.628Z,1.50
2023-04-24T18:46:12.980Z,1.52
2023-04-24T18:49:16.631Z,1.35
2023-04-24T18:52:20.699Z,1.50
2023-04-24T18:55:24.651Z,1.33
2023-04-24T18:58:30.357Z,1.80
2023-04-24T19:01:35.974Z,1.70
2023-04-24T19:04:39.885Z,1.50
2023-04-24T19:07:44.065Z,1.48
2023-04-24T19:10:47.640Z,1.77
2023-04-24T19:13:53.268Z,1.40
2023-04-24T19:16:57.926Z,1.63
2023-04-24T19:20:01.620Z,1.17
2023-04-24T19:23:07.046Z,1.33
2023-04-24T19:26:11.325Z,1.10
2023-04-24T19:29:16.384Z,1.65
2023-04-24T19:32:24.984Z,0.98
2023-04-24T19:35:49.153Z,0.90
2023-04-24T19:38:53.385Z,0.80
2023-04-24T19:42:00.411Z,0.88
2023-04-24T19:45:11.188Z,1.23
2023-04-24T19:48:16.404Z,1.20
2023-04-24T19:51:20.637Z,0.80
2023-04-24T19:54:26.148Z,0.90
2023-04-24T19:57:32.132Z,0.95
2023-04-24T20:00:42.041Z,1.30
2023-04-24T20:03:45.708Z,1.70
2023-04-24T20:06:50.467Z,1.17
2023-04-24T20:09:54.344Z,1.60
2023-04-24T20:12:58.003Z,1.30
2023-04-24T20:16:05.011Z,1.08
2023-04-24T20:19:08.482Z,1.17
2023-04-24T20:22:16.170Z,1.70
2023-04-24T20:25:21.152Z,1.65
2023-04-24T20:28:29.188Z,1.70
2023-04-24T20:31:35.381Z,1.52
2023-04-24T20:34:39.113Z,2.00
2023-04-24T20:37:47.934Z,2.17
2023-04-24T20:43:59.165Z,2.35
2023-04-24T20:47:04.736Z,2.15
2023-04-24T20:50:09.717Z,2.00
2023-04-24T20:53:13.353Z,2.25
2023-04-24T20:56:16.793Z,1.73
2023-04-24T20:59:20.282Z,1.73
2023-04-24T21:02:27.115Z,1.88
2023-04-24T21:05:31.090Z,1.35
2023-04-24T21:08:36.669Z,1.80
2023-04-24T21:11:41.474Z,1.67
2023-04-24T21:14:47.364Z,1.35
2023-04-24T21:17:53.569Z,1.67
2023-04-24T21:20:57.030Z,1.50
2023-04-24T21:24:05.823Z,1.40
2023-04-24T21:27:09.657Z,1.27
2023-04-24T21:30:14.809Z,1.38
2023-04-24T21:33:20.466Z,1.38
2023-04-24T21:36:26.931Z,1.35
2023-04-24T21:39:31.300Z,1.42
2023-04-24T21:42:36.600Z,1.55
2023-04-24T21:45:40.141Z,1.30
2023-04-24T21:48:45.144Z,1.42
2023-04-24T21:51:48.822Z,1.77
2023-04-24T21:54:52.430Z,1.65
2023-04-24T21:57:56.617Z,1.73
2023-04-24T22:01:04.685Z,1.52
2023-04-24T22:04:10.132Z,1.55
2023-04-24T22:07:15.657Z,1.50
2023-04-24T22:10:21.832Z,1.25
2023-04-24T22:13:27.116Z,1.33
2023-04-24T22:16:31.258Z,1.27
2023-04-24T22:19:37.233Z,1.75
2023-04-24T22:22:40.919Z,1.38
2023-04-24T22:25:45.228Z,1.67
2023-04-24T22:28:48.959Z,1.38
2023-04-24T22:31:57.887Z,1.40
2023-04-24T22:35:06.753Z,1.40
2023-04-24T22:38:10.515Z,1.38
2023-04-24T22:41:16.229Z,1.27
2023-04-24T22:44:24.138Z,1.73
2023-04-24T22:47:31.288Z,1.42
2023-04-24T22:50:40.644Z,1.25
2023-04-24T22:53:50.010Z,1.85
2023-04-24T22:56:54.184Z,1.45
2023-04-24T22:59:59.482Z,1.40
2023-04-24T23:03:05.084Z,1.75
2023-04-24T23:06:10.829Z,1.60
2023-04-24T23:09:14.635Z,1.48
2023-04-24T23:12:18.991Z,1.90
2023-04-24T23:15:24.093Z,1.80
2023-04-24T23:18:29.325Z,1.83
2023-04-24T23:21:37.983Z,1.98
2023-04-24T23:24:43.560Z,1.48
2023-04-24T23:27:48.317Z,1.80
2023-04-24T23:30:52.277Z,1.60
2023-04-24T23:33:55.904Z,1.40
2023-04-24T23:37:01.110Z,1.75
2023-04-24T23:40:06.058Z,1.40
2023-04-24T23:43:10.291Z,1.80
2023-04-24T23:46:13.959Z,1.92
2023-04-24T23:49:17.811Z,1.45
2023-04-24T23:52:24.896Z,1.55
2023-04-24T23:55:29.670Z,1.45
2023-04-24T23:58:33.345Z,2.08
